Terminal Aerodrome Forecast
Issued by NWS Boston, MA

Home | Current Version | Previous Version | Text Only | Print | Product List | Glossary On
Versions: 1 2 3 4 5 6 7 8 9 10 11 12 13 14 15 16 17 18 19 20 21 22 23 24 25 26 27 28 29 30 31 32 33 34 35 36
000
FTUS41 KBOX 200525
TAFPVD
TAF
KPVD 200525Z 2006/2106 31014KT P6SM OVC070
     FM201000 30012KT P6SM SCT070
     FM201400 32014G26KT P6SM BKN050
     FM210000 32010KT P6SM SCT050=

USA.gov is the U.S. government's official web portal to all federal, state and local government web resources and services.